createdAt,value
2022-11-05T00:00:02.027Z,96.5
2022-11-05T00:01:18.321Z,96.6
2022-11-05T00:02:34.633Z,96.5
2022-11-05T00:03:50.922Z,96.7
2022-11-05T00:05:07.210Z,96.8
2022-11-05T00:06:23.507Z,96.8
2022-11-05T00:07:39.796Z,96.9
2022-11-05T00:08:56.097Z,97
2022-11-05T00:10:11.420Z,97.2
2022-11-05T00:11:27.705Z,97.2
2022-11-05T00:12:44.006Z,97.1
2022-11-05T00:14:00.294Z,96.9
2022-11-05T00:15:16.579Z,96.9
2022-11-05T00:16:32.883Z,97
2022-11-05T00:17:49.157Z,96.7
2022-11-05T00:19:04.486Z,96.7
2022-11-05T00:20:19.796Z,96.6
2022-11-05T00:21:36.091Z,96.6
2022-11-05T00:22:52.381Z,96.1
2022-11-05T00:24:08.678Z,96.2
2022-11-05T00:25:24.986Z,96
2022-11-05T00:26:41.273Z,96
2022-11-05T00:27:57.548Z,95.9
2022-11-05T00:29:13.849Z,95.9
2022-11-05T00:30:30.166Z,95.6
2022-11-05T00:31:46.432Z,95.6
2022-11-05T00:33:02.735Z,95.5
2022-11-05T00:34:19.034Z,95.3
2022-11-05T00:35:35.326Z,95.1
2022-11-05T00:36:50.627Z,95
2022-11-05T00:38:06.922Z,95.1
2022-11-05T00:39:23.230Z,95.1
2022-11-05T00:40:39.505Z,94.7
2022-11-05T00:41:55.812Z,94.5
2022-11-05T00:43:12.110Z,94.6
2022-11-05T00:44:28.389Z,94.8
2022-11-05T00:45:43.713Z,94.7
2022-11-05T00:46:59.026Z,94.8
2022-11-05T00:48:14.330Z,94.8
2022-11-05T00:49:29.656Z,94.5
2022-11-05T00:50:45.959Z,94.7
2022-11-05T00:52:02.234Z,94.8
2022-11-05T00:53:18.522Z,94.6
2022-11-05T00:54:34.833Z,94.6
2022-11-05T00:55:51.117Z,94.8
2022-11-05T00:57:07.408Z,94.5
2022-11-05T00:58:23.707Z,94.5
2022-11-05T00:59:39.994Z,94.6
2022-11-05T01:00:56.292Z,94.5
2022-11-05T01:02:12.583Z,94.5
2022-11-05T01:03:28.880Z,94.5
2022-11-05T01:04:45.173Z,94.6
2022-11-05T01:06:00.485Z,94.9
2022-11-05T01:07:16.778Z,94.7
2022-11-05T01:08:33.071Z,94.7
2022-11-05T01:09:49.364Z,94.9
2022-11-05T01:11:05.688Z,94.8
2022-11-05T01:12:21.970Z,94.8
2022-11-05T01:13:38.266Z,94.8
2022-11-05T01:14:53.564Z,94.9
2022-11-05T01:16:08.901Z,94.9
2022-11-05T01:17:24.188Z,94.6
2022-11-05T01:18:39.520Z,94.8
2022-11-05T01:19:55.805Z,95.1
2022-11-05T01:21:11.136Z,94.9
2022-11-05T01:22:26.428Z,95
2022-11-05T01:23:42.720Z,95
2022-11-05T01:24:59.012Z,95.1
2022-11-05T01:26:15.335Z,95
2022-11-05T01:27:31.612Z,95.2
2022-11-05T01:28:47.911Z,95.1
2022-11-05T01:30:03.205Z,95.1
2022-11-05T01:31:18.517Z,95.2
2022-11-05T01:32:33.844Z,95.1
2022-11-05T01:33:50.138Z,95.2
2022-11-05T01:35:05.439Z,95.2
2022-11-05T01:36:20.766Z,95.3
2022-11-05T01:37:37.057Z,95.3
2022-11-05T01:38:53.360Z,95.4
2022-11-05T01:40:09.640Z,95
2022-11-05T01:41:25.958Z,95.3
2022-11-05T01:42:42.236Z,95.2
2022-11-05T01:43:58.544Z,95.3
2022-11-05T01:45:14.822Z,95.6
2022-11-05T01:46:31.143Z,95.5
2022-11-05T01:47:47.412Z,95.6
2022-11-05T01:49:03.702Z,95.6
2022-11-05T01:50:19.988Z,95.6
2022-11-05T01:51:36.290Z,95.6
2022-11-05T01:52:51.593Z,95.6
2022-11-05T01:54:07.882Z,95.7
2022-11-05T01:55:24.176Z,95.8
2022-11-05T01:56:40.470Z,95.5
2022-11-05T01:57:56.784Z,95.5
2022-11-05T01:59:13.067Z,95.5
2022-11-05T02:00:29.365Z,95.5
2022-11-05T02:01:44.667Z,95.6
2022-11-05T02:02:59.993Z,95.6
2022-11-05T02:04:16.305Z,95.7
2022-11-05T02:05:31.589Z,95.6
2022-11-05T02:06:46.926Z,95.7
2022-11-05T02:08:03.210Z,95.8
2022-11-05T02:09:19.486Z,95.8
2022-11-05T02:10:35.783Z,95.8
2022-11-05T02:13:08.385Z,95.8
2022-11-05T02:14:24.672Z,95.8
2022-11-05T02:15:40.969Z,96
2022-11-05T02:16:57.251Z,96.3
2022-11-05T02:18:13.548Z,96.3
2022-11-05T02:19:29.868Z,96.3
2022-11-05T02:20:46.142Z,96.5
2022-11-05T02:22:02.451Z,96.5
2022-11-05T02:23:17.755Z,96.5
2022-11-05T02:24:34.037Z,96.5
2022-11-05T02:25:50.340Z,96.5
2022-11-05T02:27:06.628Z,96.7
2022-11-05T02:28:22.918Z,97
2022-11-05T02:29:39.243Z,97.1
2022-11-05T02:30:55.505Z,97.1
2022-11-05T02:32:11.806Z,97.3
2022-11-05T02:33:27.133Z,97.4
2022-11-05T02:34:42.446Z,97.5
2022-11-05T02:38:31.310Z,97.5
2022-11-05T02:39:47.600Z,97.7
2022-11-05T02:41:03.909Z,97.6
2022-11-05T02:42:20.221Z,97.5
2022-11-05T02:43:36.489Z,97.6
2022-11-05T02:44:52.782Z,97.5
2022-11-05T02:46:09.084Z,97.5
2022-11-05T02:47:25.386Z,97.6
2022-11-05T02:48:41.661Z,97.6
2022-11-05T02:49:56.000Z,97.7
2022-11-05T02:51:12.285Z,97.9
2022-11-05T02:52:28.577Z,98.1
2022-11-05T02:53:44.875Z,98.2
2022-11-05T02:55:01.168Z,98.2
2022-11-05T02:56:17.466Z,98.2
2022-11-05T02:57:33.771Z,98.3
2022-11-05T02:58:50.059Z,98.1
2022-11-05T03:00:06.353Z,98
2022-11-05T03:01:22.652Z,98.1
2022-11-05T03:02:38.936Z,98.2
2022-11-05T03:03:54.262Z,98.2
2022-11-05T03:05:09.570Z,98.1
2022-11-05T03:06:25.852Z,97.9
2022-11-05T03:07:42.152Z,98
2022-11-05T03:08:58.462Z,98
2022-11-05T03:10:14.736Z,98.1
2022-11-05T03:11:31.035Z,97.7
2022-11-05T03:12:47.324Z,97.6
2022-11-05T03:14:03.636Z,97.6
2022-11-05T03:15:19.919Z,97.6
2022-11-05T03:16:36.228Z,97.5
2022-11-05T03:17:52.515Z,97.5
2022-11-05T03:19:08.798Z,97.5
2022-11-05T03:20:25.091Z,97.5
2022-11-05T03:21:40.399Z,97.5
2022-11-05T03:22:56.714Z,97.5
2022-11-05T03:24:12.986Z,97.5
2022-11-05T03:25:29.288Z,97.6
2022-11-05T03:26:45.591Z,97.7
2022-11-05T03:28:01.882Z,97.4
2022-11-05T03:29:18.164Z,97.3
2022-11-05T03:30:33.488Z,97.3
2022-11-05T03:31:48.807Z,97.3
2022-11-05T03:34:20.408Z,97.2
2022-11-05T03:35:35.736Z,97.4
2022-11-05T03:36:51.037Z,97.3
2022-11-05T03:38:06.368Z,97.3
2022-11-05T03:39:21.668Z,97.6
2022-11-05T03:40:37.948Z,97.7
2022-11-05T03:41:54.248Z,97.8
2022-11-05T03:43:10.549Z,97.8
2022-11-05T03:44:26.845Z,97.7
2022-11-05T03:46:59.423Z,97.7
2022-11-05T03:48:15.746Z,97.8
2022-11-05T03:49:32.014Z,97.8
2022-11-05T03:50:48.304Z,97.9
2022-11-05T03:52:04.595Z,98
2022-11-05T03:53:20.886Z,97.8
2022-11-05T03:54:37.180Z,97.8
2022-11-05T03:55:52.497Z,97.8
2022-11-05T03:57:08.802Z,97.8
2022-11-05T03:58:25.082Z,97.9
2022-11-05T03:59:41.373Z,97.9
2022-11-05T04:00:57.686Z,97.9
2022-11-05T04:02:13.962Z,97.6
2022-11-05T04:03:30.281Z,97.7
2022-11-05T04:04:46.559Z,97.5
2022-11-05T04:06:01.866Z,97.7
2022-11-05T04:07:17.194Z,97.7
2022-11-05T04:08:32.508Z,97.6
2022-11-05T04:11:04.105Z,97.7
2022-11-05T04:12:20.388Z,97.8
2022-11-05T04:13:36.685Z,97.8
2022-11-05T04:14:52.987Z,97.6
2022-11-05T04:16:09.277Z,97.5
2022-11-05T04:18:41.861Z,97.6
2022-11-05T04:19:58.174Z,97.7
2022-11-05T04:21:14.460Z,97.7
2022-11-05T04:22:30.747Z,97.9
2022-11-05T04:23:47.039Z,98.1
2022-11-05T04:25:03.342Z,98.3
2022-11-05T04:26:19.627Z,98.2
2022-11-05T04:27:34.956Z,98.1
2022-11-05T04:28:51.240Z,98.2
2022-11-05T04:30:07.535Z,98.3
2022-11-05T04:31:23.830Z,98.2
2022-11-05T04:32:40.128Z,98.3
2022-11-05T04:33:56.420Z,98.4
2022-11-05T04:35:12.704Z,98.3
2022-11-05T04:36:28.996Z,98.3
2022-11-05T04:37:44.320Z,98.1
2022-11-05T04:39:00.616Z,98.3
2022-11-05T04:40:15.936Z,98.2
2022-11-05T04:41:32.217Z,98.1
2022-11-05T04:42:48.522Z,98
2022-11-05T04:44:04.805Z,98.1
2022-11-05T04:45:21.104Z,98
2022-11-05T04:46:37.401Z,98
2022-11-05T04:47:53.692Z,98
2022-11-05T04:49:09.985Z,98.1
2022-11-05T04:50:26.289Z,98
2022-11-05T04:51:42.574Z,98
2022-11-05T04:52:58.860Z,97.9
2022-11-05T04:54:15.159Z,98
2022-11-05T04:55:31.465Z,98
2022-11-05T04:56:46.771Z,98
2022-11-05T04:58:03.057Z,98
2022-11-05T04:59:19.347Z,98.1
2022-11-05T05:00:35.646Z,98.1
2022-11-05T05:01:51.936Z,98
2022-11-05T05:03:08.249Z,98
2022-11-05T05:04:23.543Z,98
2022-11-05T05:05:38.870Z,98
2022-11-05T05:06:54.174Z,98
2022-11-05T05:08:09.481Z,98
2022-11-05T05:09:24.804Z,98.2
2022-11-05T05:10:40.107Z,98.2
2022-11-05T05:11:56.418Z,98.3
2022-11-05T05:13:12.707Z,98.3
2022-11-05T05:14:29.003Z,98.3
2022-11-05T05:15:45.300Z,98.4
2022-11-05T05:17:01.582Z,98.4
2022-11-05T05:18:17.892Z,98.4
2022-11-05T05:19:34.177Z,98.5
2022-11-05T05:20:50.476Z,98.6
2022-11-05T05:22:06.770Z,98.7
2022-11-05T05:23:23.058Z,98.8
2022-11-05T05:24:39.358Z,98.9
2022-11-05T05:25:55.645Z,99
2022-11-05T05:27:10.952Z,99
2022-11-05T05:28:27.247Z,99
2022-11-05T05:29:43.542Z,98.9
2022-11-05T05:30:59.841Z,98.7
2022-11-05T05:32:16.140Z,98.5
2022-11-05T05:33:32.419Z,98.4
2022-11-05T05:34:48.728Z,98.3
2022-11-05T05:36:04.031Z,98.3
2022-11-05T05:37:19.343Z,98.3
2022-11-05T05:38:34.656Z,98.3
2022-11-05T05:39:49.963Z,98.2
2022-11-05T05:41:06.273Z,98.2
2022-11-05T05:42:22.562Z,98.3
2022-11-05T05:43:38.849Z,98.5
2022-11-05T05:44:55.107Z,98.5
2022-11-05T05:46:11.355Z,98.5
2022-11-05T05:47:26.603Z,98.5
2022-11-05T05:48:42.911Z,98.6
2022-11-05T05:49:59.200Z,98.5
2022-11-05T05:51:15.501Z,98.6
2022-11-05T05:52:31.744Z,98.6
2022-11-05T05:53:47.990Z,98.6
2022-11-05T05:55:04.222Z,98.5
2022-11-05T05:56:20.464Z,98.5
2022-11-05T05:57:36.714Z,98.4
2022-11-05T05:58:52.951Z,98.5
2022-11-05T06:00:09.195Z,98.6
2022-11-05T06:01:25.434Z,99.1
2022-11-05T06:02:41.671Z,99.2
2022-11-05T06:03:56.919Z,99
2022-11-05T06:05:12.176Z,98.8
2022-11-05T06:06:27.433Z,98.6
2022-11-05T06:07:42.694Z,98.4
2022-11-05T06:08:57.960Z,98.2
2022-11-05T06:10:14.208Z,98
2022-11-05T06:11:30.434Z,98
2022-11-05T06:12:46.683Z,98.3
2022-11-05T06:15:19.158Z,98.9
2022-11-05T06:16:35.410Z,99.3
2022-11-05T06:17:51.637Z,99.6
2022-11-05T06:19:07.885Z,99.5
2022-11-05T06:20:24.119Z,99.6
2022-11-05T06:21:40.365Z,99.8
2022-11-05T06:22:56.612Z,99.8
2022-11-05T06:24:12.839Z,99.6
2022-11-05T06:25:28.104Z,99.3
2022-11-05T06:26:44.334Z,99.4
2022-11-05T06:28:00.583Z,99.3
2022-11-05T06:29:16.822Z,99.4
2022-11-05T06:30:33.062Z,99.5
2022-11-05T06:31:49.299Z,99.4
2022-11-05T06:33:05.533Z,99.4
2022-11-05T06:34:21.786Z,99.4
2022-11-05T06:35:37.044Z,99.4
2022-11-05T06:36:52.306Z,99.7
2022-11-05T06:38:07.572Z,100
2022-11-05T06:39:22.810Z,100
2022-11-05T06:40:39.060Z,100
2022-11-05T06:41:55.296Z,100
2022-11-05T06:43:11.548Z,100
2022-11-05T06:44:27.771Z,100
2022-11-05T06:45:44.013Z,100
2022-11-05T06:47:00.251Z,100
2022-11-05T06:48:16.490Z,100
2022-11-05T06:49:32.749Z,100
2022-11-05T06:50:48.983Z,100
2022-11-05T06:52:05.223Z,100
2022-11-05T06:53:21.465Z,100
2022-11-05T06:54:37.692Z,100
2022-11-05T06:55:52.955Z,100
2022-11-05T06:57:09.202Z,100
2022-11-05T06:58:25.444Z,100
2022-11-05T06:59:41.672Z,100
2022-11-05T07:00:57.926Z,100
2022-11-05T07:02:14.154Z,100
2022-11-05T07:03:30.390Z,100
2022-11-05T07:04:45.659Z,100
2022-11-05T07:06:00.924Z,100
2022-11-05T07:07:16.176Z,100
2022-11-05T07:08:31.434Z,100
2022-11-05T07:09:47.683Z,100
2022-11-05T07:11:03.924Z,100
2022-11-05T07:12:20.165Z,100
2022-11-05T07:13:36.387Z,100
2022-11-05T07:14:52.628Z,100
2022-11-05T07:16:08.866Z,100
2022-11-05T07:17:25.126Z,100
2022-11-05T07:18:41.362Z,100
2022-11-05T07:19:57.589Z,100
2022-11-05T07:21:13.831Z,100
2022-11-05T07:22:30.076Z,100
2022-11-05T07:23:46.309Z,100
2022-11-05T07:25:01.579Z,100
2022-11-05T07:26:17.805Z,100
2022-11-05T07:27:34.060Z,100
2022-11-05T07:28:50.285Z,100
2022-11-05T07:30:06.525Z,100
2022-11-05T07:31:22.773Z,100
2022-11-05T07:33:55.263Z,100
2022-11-05T07:35:10.507Z,100
2022-11-05T07:36:25.761Z,100
2022-11-05T07:37:41.041Z,100
2022-11-05T07:38:56.285Z,100
2022-11-05T07:40:12.526Z,100
2022-11-05T07:41:28.770Z,100
2022-11-05T07:42:45.012Z,100
2022-11-05T07:44:01.243Z,100
2022-11-05T07:45:17.496Z,100
2022-11-05T07:46:33.723Z,100
2022-11-05T07:47:49.979Z,100
2022-11-05T07:49:06.222Z,100
2022-11-05T07:50:22.446Z,100
2022-11-05T07:51:38.699Z,100
2022-11-05T07:52:54.934Z,100
2022-11-05T07:54:11.172Z,99.9
2022-11-05T07:55:26.430Z,99.9
2022-11-05T07:56:42.668Z,99.8
2022-11-05T07:57:58.918Z,99.5
2022-11-05T07:59:15.145Z,99.5
2022-11-05T08:00:31.385Z,99.6
2022-11-05T08:01:47.626Z,99.3
2022-11-05T08:03:03.863Z,99.2
2022-11-05T08:04:19.126Z,99
2022-11-05T08:05:34.398Z,99.1
2022-11-05T08:06:49.650Z,99
2022-11-05T08:08:04.905Z,99.1
2022-11-05T08:09:20.173Z,99.1
2022-11-05T08:10:35.426Z,98.9
2022-11-05T08:11:51.671Z,98.7
2022-11-05T08:13:07.905Z,98.6
2022-11-05T08:14:24.144Z,98.2
2022-11-05T08:15:40.384Z,97.7
2022-11-05T08:16:56.635Z,97.7
2022-11-05T08:18:12.867Z,97.5
2022-11-05T08:19:29.104Z,97.3
2022-11-05T08:20:45.348Z,97
2022-11-05T08:22:01.580Z,97.2
2022-11-05T08:23:17.840Z,96.8
2022-11-05T08:24:34.067Z,96.4
2022-11-05T08:25:50.305Z,96.4
2022-11-05T08:27:05.570Z,96.5
2022-11-05T08:28:21.809Z,96.4
2022-11-05T08:29:38.046Z,95.4
2022-11-05T08:30:54.292Z,95.1
2022-11-05T08:32:10.519Z,94.3
2022-11-05T08:33:26.764Z,94.2
2022-11-05T08:34:42.998Z,94.3
2022-11-05T08:35:58.271Z,94.2
2022-11-05T08:37:13.519Z,94.1
2022-11-05T08:38:28.788Z,93.7
2022-11-05T08:39:44.047Z,93.7
2022-11-05T08:40:59.303Z,92.8
2022-11-05T08:42:14.559Z,93
2022-11-05T08:43:30.797Z,92.4
2022-11-05T08:44:47.035Z,92.4
2022-11-05T08:46:03.286Z,92.5
2022-11-05T08:47:19.528Z,92.7
2022-11-05T08:48:35.761Z,92
2022-11-05T08:49:51.995Z,92.4
2022-11-05T08:51:08.255Z,91.7
2022-11-05T08:52:24.490Z,91.9
2022-11-05T08:53:40.730Z,91.9
2022-11-05T08:54:56.976Z,91.9
2022-11-05T08:56:13.198Z,91.7
2022-11-05T08:57:29.445Z,91.6
2022-11-05T08:58:45.686Z,90.8
2022-11-05T09:00:00.951Z,89.8
2022-11-05T09:01:17.172Z,90
2022-11-05T09:02:33.422Z,90
2022-11-05T09:03:49.665Z,89.5
2022-11-05T09:05:05.900Z,89.5
2022-11-05T09:06:22.139Z,89.3
2022-11-05T09:07:37.405Z,89.1
2022-11-05T09:08:52.652Z,89.1
2022-11-05T09:10:08.903Z,89.1
2022-11-05T09:11:24.159Z,89
2022-11-05T09:12:39.421Z,89.4
2022-11-05T09:13:55.668Z,88.5
2022-11-05T09:15:11.899Z,88.5
2022-11-05T09:16:28.145Z,88.8
2022-11-05T09:17:44.371Z,88.1
2022-11-05T09:19:00.618Z,87.9
2022-11-05T09:20:16.858Z,87.2
2022-11-05T09:21:33.103Z,87.2
2022-11-05T09:22:49.331Z,87.3
2022-11-05T09:24:05.578Z,86.7
2022-11-05T09:25:21.812Z,86.6
2022-11-05T09:26:38.052Z,86
2022-11-05T09:27:54.308Z,85.7
2022-11-05T09:29:09.553Z,84
2022-11-05T09:30:25.000Z,82
2022-11-05T09:31:42.034Z,79.6
2022-11-05T09:32:58.268Z,77.3
2022-11-05T09:34:14.527Z,75.9
2022-11-05T09:35:30.760Z,75.3
2022-11-05T09:36:46.992Z,75
2022-11-05T09:38:02.248Z,75.2
2022-11-05T09:39:17.515Z,75.3
2022-11-05T09:40:32.764Z,75.7
2022-11-05T09:41:48.022Z,75.2
2022-11-05T09:43:04.262Z,76.7
2022-11-05T09:44:20.516Z,75.8
2022-11-05T09:45:36.736Z,74.2
2022-11-05T09:46:52.994Z,73.2
2022-11-05T09:48:09.234Z,72.3
2022-11-05T09:49:25.469Z,73
2022-11-05T09:50:41.698Z,73.5
2022-11-05T09:51:57.942Z,73.7
2022-11-05T09:53:14.171Z,72.8
2022-11-05T09:54:30.411Z,72.3
2022-11-05T09:55:46.653Z,72
2022-11-05T09:57:02.893Z,71
2022-11-05T09:58:18.143Z,69.9
2022-11-05T09:59:34.390Z,69.4
2022-11-05T10:00:50.629Z,69.6
2022-11-05T10:02:05.891Z,69.4
2022-11-05T10:03:22.114Z,69.9
2022-11-05T10:04:38.353Z,71.2
2022-11-05T10:05:54.593Z,72
2022-11-05T10:07:09.856Z,71.7
2022-11-05T10:08:25.122Z,70.5
2022-11-05T10:09:41.365Z,69.3
2022-11-05T10:10:57.600Z,68.4
2022-11-05T10:12:13.830Z,67.7
2022-11-05T10:13:30.067Z,68.4
2022-11-05T10:14:46.323Z,68.5
2022-11-05T10:16:02.543Z,68.6
2022-11-05T10:17:18.781Z,68.6
2022-11-05T10:18:35.026Z,67.8
2022-11-05T10:19:51.277Z,69.2
2022-11-05T10:21:07.506Z,72
2022-11-05T10:22:23.757Z,73.4
2022-11-05T10:23:39.977Z,75.1
2022-11-05T10:24:55.237Z,76.9
2022-11-05T10:26:11.489Z,78
2022-11-05T10:27:27.724Z,79.3
2022-11-05T10:28:43.966Z,79.4
2022-11-05T10:30:00.194Z,78.2
2022-11-05T10:31:16.437Z,75.5
2022-11-05T10:32:32.670Z,74.3
2022-11-05T10:33:47.933Z,73.9
2022-11-05T10:35:03.189Z,73.4
2022-11-05T10:36:19.437Z,73.4
2022-11-05T10:37:35.666Z,73.9
2022-11-05T10:38:51.901Z,72.8
2022-11-05T10:40:08.151Z,71
2022-11-05T10:41:24.402Z,70.3
2022-11-05T10:42:40.615Z,70.2
2022-11-05T10:43:56.859Z,70.4
2022-11-05T10:45:13.097Z,68.3
2022-11-05T10:46:29.336Z,69
2022-11-05T10:47:45.580Z,69.7
2022-11-05T10:49:01.828Z,69.9
2022-11-05T10:50:18.050Z,72.3
2022-11-05T10:51:33.310Z,73.6
2022-11-05T10:52:49.558Z,73.7
2022-11-05T10:54:05.793Z,75.4
2022-11-05T10:55:22.041Z,75.2
2022-11-05T10:56:38.262Z,76.7
2022-11-05T10:57:54.507Z,77
2022-11-05T10:59:10.752Z,77.5
2022-11-05T11:00:26.021Z,76.2
2022-11-05T11:01:41.267Z,73.5
2022-11-05T11:02:56.532Z,73.6
2022-11-05T11:04:11.785Z,74.6
2022-11-05T11:05:28.046Z,74.6
2022-11-05T11:06:44.285Z,72
2022-11-05T11:08:00.524Z,71.3
2022-11-05T11:09:16.756Z,70.2
2022-11-05T11:10:32.985Z,71.5
2022-11-05T11:11:49.224Z,71.1
2022-11-05T11:13:05.476Z,69.9
2022-11-05T11:14:21.714Z,71.5
2022-11-05T11:15:37.951Z,73.1
2022-11-05T11:16:54.182Z,74.2
2022-11-05T11:18:10.439Z,73.5
2022-11-05T11:19:26.673Z,71
2022-11-05T11:20:41.935Z,67.4
2022-11-05T11:21:58.173Z,67.6
2022-11-05T11:23:14.408Z,68.1
2022-11-05T11:24:30.643Z,68.5
2022-11-05T11:25:46.882Z,69
2022-11-05T11:27:03.129Z,69.5
2022-11-05T11:28:19.372Z,69.4
2022-11-05T11:29:34.637Z,70.4
2022-11-05T11:30:49.884Z,71.8
2022-11-05T11:32:06.134Z,71.3
2022-11-05T11:33:22.376Z,68.5
2022-11-05T11:34:38.597Z,66.9
2022-11-05T11:35:54.850Z,64.4
2022-11-05T11:37:11.000Z,63.4
2022-11-05T11:39:43.551Z,61.5
2022-11-05T11:40:59.807Z,63.4
2022-11-05T11:42:16.033Z,65.8
2022-11-05T11:43:32.287Z,67.6
2022-11-05T11:44:48.526Z,65.6
2022-11-05T11:46:04.764Z,64.8
2022-11-05T11:47:20.016Z,62.5
2022-11-05T11:48:36.253Z,62.3
2022-11-05T11:49:52.484Z,61.3
2022-11-05T11:51:08.724Z,61.4
2022-11-05T11:52:24.962Z,60.7
2022-11-05T11:53:41.200Z,60.6
2022-11-05T11:54:57.439Z,60.7
2022-11-05T11:56:13.687Z,61.3
2022-11-05T11:57:28.946Z,62.8
2022-11-05T11:58:44.198Z,64.9
2022-11-05T11:59:59.467Z,66.3
2022-11-05T12:01:14.725Z,63.6
2022-11-05T12:02:30.972Z,62.8
2022-11-05T12:03:47.213Z,61.3
2022-11-05T12:05:03.451Z,61.4
2022-11-05T12:06:19.673Z,60.5
2022-11-05T12:07:35.915Z,61
2022-11-05T12:08:52.151Z,61
2022-11-05T12:12:44.717Z,61.3
2022-11-05T12:14:01.042Z,58.4
2022-11-05T12:15:17.345Z,58.3
2022-11-05T12:16:33.523Z,57
2022-11-05T12:17:49.696Z,56.1
2022-11-05T12:19:05.864Z,56.5
2022-11-05T12:20:22.036Z,56.4
2022-11-05T12:21:38.203Z,56.7
2022-11-05T12:22:54.375Z,57.8
2022-11-05T12:24:10.537Z,57.2
2022-11-05T12:25:26.713Z,57.7
2022-11-05T12:26:42.871Z,57.3
2022-11-05T12:27:59.031Z,57.8
2022-11-05T12:29:15.193Z,58.6
2022-11-05T12:30:31.365Z,59.7
2022-11-05T12:31:47.513Z,61.3
2022-11-05T12:33:03.682Z,63.6
2022-11-05T12:34:19.833Z,65
2022-11-05T12:35:36.002Z,67.5
2022-11-05T12:36:52.166Z,69.7
2022-11-05T12:38:08.330Z,72
2022-11-05T12:39:24.488Z,73.2
2022-11-05T12:40:40.666Z,73.4
2022-11-05T12:41:56.827Z,74.2
2022-11-05T12:43:13.007Z,73.9
2022-11-05T12:44:29.182Z,74.3
2022-11-05T12:45:45.374Z,74.3
2022-11-05T12:47:01.546Z,74.4
2022-11-05T12:48:17.747Z,74.5
2022-11-05T12:49:33.911Z,74.3
2022-11-05T12:50:50.100Z,74.6
2022-11-05T12:52:06.301Z,74.3
2022-11-05T12:53:22.495Z,72.2
2022-11-05T12:54:38.670Z,69.7
2022-11-05T12:55:54.860Z,68.8
2022-11-05T12:57:11.034Z,67.4
2022-11-05T12:58:27.233Z,66
2022-11-05T12:59:43.402Z,65.6
2022-11-05T13:00:59.589Z,66.2
2022-11-05T13:02:15.837Z,64.4
2022-11-05T13:03:32.085Z,64.6
2022-11-05T13:04:47.331Z,62.6
2022-11-05T13:06:03.493Z,61
2022-11-05T13:07:19.670Z,61.2
2022-11-05T13:08:35.856Z,60.2
2022-11-05T13:09:52.016Z,58.9
2022-11-05T13:11:08.200Z,58.4
2022-11-05T13:12:24.347Z,58.7
2022-11-05T13:13:40.526Z,58.9
2022-11-05T13:14:56.710Z,59.2
2022-11-05T13:16:12.865Z,58.1
2022-11-05T13:17:29.046Z,58.2
2022-11-05T13:18:45.207Z,58.5
2022-11-05T13:20:01.383Z,58.1
2022-11-05T13:21:17.546Z,57.4
2022-11-05T13:22:33.706Z,57.1
2022-11-05T13:23:49.871Z,58.3
2022-11-05T13:25:06.045Z,58.6
2022-11-05T13:26:22.201Z,58.3
2022-11-05T13:27:38.371Z,57.6
2022-11-05T13:28:54.541Z,57.5
2022-11-05T13:30:10.703Z,57
2022-11-05T13:31:26.854Z,56.3
2022-11-05T13:32:43.017Z,55.9
2022-11-05T13:33:59.174Z,55.8
2022-11-05T13:35:15.335Z,55.2
2022-11-05T13:36:31.554Z,54.5
2022-11-05T13:37:47.784Z,54.1
2022-11-05T13:39:03.993Z,55.1
2022-11-05T13:40:20.215Z,54.9
2022-11-05T13:41:36.440Z,55.7
2022-11-05T13:42:52.669Z,55.4
2022-11-05T13:44:08.875Z,57.1
2022-11-05T13:45:25.097Z,56.8
2022-11-05T13:46:41.319Z,55.7
2022-11-05T13:47:57.540Z,56.7
2022-11-05T13:49:13.759Z,58.6
2022-11-05T13:50:29.972Z,59.3
2022-11-05T13:51:46.205Z,59.6
2022-11-05T13:53:02.528Z,59.1
2022-11-05T13:54:17.892Z,59
2022-11-05T13:55:34.110Z,59.3
2022-11-05T13:56:50.322Z,58.6
2022-11-05T13:58:06.547Z,58.8
2022-11-05T13:59:22.761Z,59
2022-11-05T14:00:38.975Z,59
2022-11-05T14:01:55.201Z,58.9
2022-11-05T14:03:11.410Z,59.3
2022-11-05T14:04:27.628Z,59.3
2022-11-05T14:05:43.860Z,59.7
2022-11-05T14:07:00.080Z,59.2
2022-11-05T14:08:16.285Z,59
2022-11-05T14:09:32.513Z,59.7
2022-11-05T14:10:48.820Z,60.6
2022-11-05T14:12:04.967Z,61
2022-11-05T14:13:21.120Z,61
2022-11-05T14:14:37.276Z,61
2022-11-05T14:15:53.431Z,61.1
2022-11-05T14:17:09.590Z,61.5
2022-11-05T14:18:25.748Z,61.2
2022-11-05T14:19:41.903Z,60.7
2022-11-05T14:20:58.078Z,60.7
2022-11-05T14:23:30.399Z,60.6
2022-11-05T14:24:46.566Z,61.3
2022-11-05T14:26:02.711Z,61.2
2022-11-05T14:27:18.871Z,61
2022-11-05T14:28:35.043Z,61.5
2022-11-05T14:29:51.196Z,61.7
2022-11-05T14:31:07.375Z,61.5
2022-11-05T14:32:23.544Z,61.2
2022-11-05T14:33:39.698Z,61.5
2022-11-05T14:34:55.865Z,62.3
2022-11-05T14:36:12.014Z,61.9
2022-11-05T14:37:28.166Z,62.2
2022-11-05T14:38:44.337Z,62.1
2022-11-05T14:40:00.486Z,62.7
2022-11-05T14:41:16.656Z,62.7
2022-11-05T14:42:32.891Z,62.6
2022-11-05T14:43:49.125Z,63.5
2022-11-05T14:45:05.360Z,63.9
2022-11-05T14:46:21.575Z,63.8
2022-11-05T14:47:37.808Z,63.9
2022-11-05T14:48:54.039Z,64.5
2022-11-05T14:50:10.292Z,65.6
2022-11-05T14:51:26.511Z,65.7
2022-11-05T14:52:41.758Z,65.1
2022-11-05T14:53:57.931Z,65.6
2022-11-05T14:55:14.120Z,66.1
2022-11-05T14:56:30.279Z,66.1
2022-11-05T14:57:46.475Z,66.6
2022-11-05T14:59:02.650Z,66.8
2022-11-05T15:00:18.822Z,66.9
2022-11-05T15:01:34.999Z,67.5
2022-11-05T15:02:51.185Z,68.4
2022-11-05T15:04:07.354Z,69.2
2022-11-05T15:05:23.548Z,70.2
2022-11-05T15:06:39.721Z,70.9
2022-11-05T15:07:55.898Z,71.1
2022-11-05T15:09:12.069Z,71.9
2022-11-05T15:10:28.247Z,72.6
2022-11-05T15:11:44.429Z,73.1
2022-11-05T15:13:00.608Z,73.5
2022-11-05T15:14:16.785Z,74
2022-11-05T15:15:32.954Z,74
2022-11-05T15:16:49.131Z,74.3
2022-11-05T15:18:05.299Z,74.7
2022-11-05T15:19:21.482Z,74.5
2022-11-05T15:20:37.645Z,74.9
2022-11-05T15:21:53.838Z,75.1
2022-11-05T15:23:10.021Z,75.4
2022-11-05T15:24:26.266Z,75.5
2022-11-05T15:25:41.512Z,75.6
2022-11-05T15:26:57.707Z,76.5
2022-11-05T15:28:13.899Z,76.9
2022-11-05T15:29:30.090Z,76.9
2022-11-05T15:30:46.270Z,77.3
2022-11-05T15:32:02.454Z,77.5
2022-11-05T15:33:18.654Z,78
2022-11-05T15:34:34.845Z,78.2
2022-11-05T15:35:51.061Z,78.7
2022-11-05T15:37:07.260Z,79
2022-11-05T15:38:23.459Z,79.3
2022-11-05T15:39:38.688Z,79.5
2022-11-05T15:40:54.872Z,79.7
2022-11-05T15:42:11.091Z,80.1
2022-11-05T15:43:27.286Z,80.6
2022-11-05T15:44:43.478Z,81
2022-11-05T15:45:59.685Z,81.5
2022-11-05T15:47:15.887Z,81.5
2022-11-05T15:48:32.088Z,81.9
2022-11-05T15:49:48.297Z,81.8
2022-11-05T15:51:04.502Z,81.7
2022-11-05T15:52:20.704Z,82
2022-11-05T15:53:36.916Z,82.1
2022-11-05T15:54:53.114Z,82
2022-11-05T15:56:09.318Z,82
2022-11-05T15:57:25.499Z,82
2022-11-05T15:58:41.712Z,82.2
2022-11-05T15:59:57.900Z,82.7
2022-11-05T16:01:14.101Z,82.9
2022-11-05T16:02:30.323Z,83
2022-11-05T16:03:46.527Z,83.2
2022-11-05T16:05:01.760Z,83.7
2022-11-05T16:06:18.026Z,83.8
2022-11-05T16:07:33.250Z,84.3
2022-11-05T16:08:49.474Z,85.1
2022-11-05T16:10:05.672Z,85.8
2022-11-05T16:11:21.950Z,86.3
2022-11-05T16:12:38.218Z,86.8
2022-11-05T16:13:54.469Z,86.7
2022-11-05T16:15:10.722Z,87.4
2022-11-05T16:16:26.984Z,87.8
2022-11-05T16:17:43.247Z,87.9
2022-11-05T16:18:59.519Z,87.7
2022-11-05T16:20:15.774Z,87.6
2022-11-05T16:21:32.043Z,87.9
2022-11-05T16:22:48.314Z,87.9
2022-11-05T16:24:04.566Z,87.2
2022-11-05T16:25:19.864Z,87.1
2022-11-05T16:26:36.122Z,87.2
2022-11-05T16:27:52.400Z,87.2
2022-11-05T16:29:08.662Z,87.5
2022-11-05T16:30:23.960Z,88.3
2022-11-05T16:31:39.238Z,88.5
2022-11-05T16:32:54.521Z,88.2
2022-11-05T16:34:10.801Z,88.2
2022-11-05T16:35:27.057Z,89
2022-11-05T16:36:43.332Z,89.3
2022-11-05T16:37:59.597Z,90
2022-11-05T16:39:15.858Z,90.2
2022-11-05T16:40:32.122Z,91.3
2022-11-05T16:41:48.373Z,92.3
2022-11-05T16:43:04.649Z,92.2
2022-11-05T16:44:20.934Z,92.7
2022-11-05T16:45:37.185Z,92.4
2022-11-05T16:46:53.450Z,92.3
2022-11-05T16:48:09.720Z,92.1
2022-11-05T16:49:25.016Z,92.5
2022-11-05T16:50:41.298Z,91.8
2022-11-05T16:51:57.567Z,90.9
2022-11-05T16:53:13.843Z,91.2
2022-11-05T16:54:30.128Z,90.9
2022-11-05T16:55:46.404Z,90.7
2022-11-05T16:57:02.676Z,90.7
2022-11-05T16:58:17.981Z,90.5
2022-11-05T16:59:33.279Z,90.5
2022-11-05T17:00:49.566Z,91.1
2022-11-05T17:02:05.852Z,91.8
2022-11-05T17:03:22.138Z,93.2
2022-11-05T17:04:38.415Z,93.7
2022-11-05T17:05:54.675Z,94
2022-11-05T17:07:10.945Z,93.7
2022-11-05T17:08:27.232Z,93.1
2022-11-05T17:09:43.500Z,94.5
2022-11-05T17:10:59.786Z,94.4
2022-11-05T17:12:16.046Z,93.7
2022-11-05T17:13:32.335Z,93.7
2022-11-05T17:14:48.603Z,93.4
2022-11-05T17:16:03.901Z,93.1
2022-11-05T17:17:20.177Z,93
2022-11-05T17:18:36.476Z,92.7